Quick Links (Output Below):   Max & Min Temps   /   Climate Reports   /   Zone Forecasts
River Forecasts   /   Forestry Forecasts   /   Aviation Forecasts   /   Radars   /   Features

Terminal Aerodrome Forecast (Arkadelphia)

Pick a Site:
Arkadelphia | El Dorado | Fayetteville | Fort Smith | Harrison | Highfill | Hot Springs | Jonesboro
Little Rock | Monticello | Mountain Home | Pine Bluff | Texarkana
 Forecast 

KADF 271120Z 2712/2812 VRB04KT 4SM -SHRA VCTS BKN010CB
      TEMPO 2712/2716 2SM RA BR BKN004
     FM271800 12008KT P6SM -SHRA VCTS SCT012 OVC025CB
     FM272100 13008KT 5SM -SHRA BR OVC020
      TEMPO 2721/2801 2SM -TSRA OVC010CB
     FM280100 17012KT 6SM SHRA BR VCTS BKN010CB
      AMD NOT SKED=


 Latest METARs (Observations) 
How to Decode METARs
13Z KADF 271256Z AUTO 00000KT 3SM BR CLR 23/23 A2985 RMK AO2 T02270227
         SLP119
         
12Z KADF 271156Z AUTO VRB04KT 5SM BR FEW006 22/22 A2986 RMK AO2 53005
         7//// T02220222 10222 20200 SLP123
         
11Z KADF 271056Z AUTO VRB04KT 4SM BR BKN004 22/22 A2983 RMK AO2
         T02160216 SLP112
         
10Z KADF 270956Z AUTO VRB04KT 3SM BR OVC004 22/22 A2981 RMK AO2
         T02160216 SLP107
         
09Z KADF 270856Z AUTO 00000KT 3SM BR FEW024 21/21 A2984 RMK AO2 56009
         T02050205 SLP116
         
08Z KADF 270756Z AUTO 00000KT 4SM BR FEW024 21/21 A2985 RMK AO2
         T02050205 SLP122
         
07Z KADF 270656Z AUTO 03003KT 5SM BR CLR 21/21 A2986 RMK AO2 T02050205
         SLP123
         
06Z KADF 270556Z AUTO 00000KT 6SM BR FEW034 21/21 A2987 RMK AO2 53002
         60028 T02110211 10227 20211 SLP128
         
05Z KADF 270456Z AUTO 00000KT 6SM BR CLR 22/22 A2987 RMK AO2 T02160216
         402940205 SLP128
         
04Z KADF 270356Z AUTO 00000KT 8SM CLR 22/22 A2986 RMK AO2 T02160216
         SLP123
         
***** Today's Observations (Above) *****


Back to Main Page
http://www.srh.noaa.gov/lzk/qfcst.php

USA.gov is the U.S. government's official web portal to all federal, state and local government web resources and services.